Time,TemperatureF,DewpointF,PressureIn,WindDirection,WindDirectionDegrees,WindSpeedMPH,WindSpeedGustMPH,Humidity,HourlyPrecipIn,Conditions,Clouds,dailyrainin,SoftwareType,DateUTC
2013-03-13 00:14:00,31.5,27.8,29.75,North,0,1.7,-999.0,86,-99.99,,,0.00,Acu-Link.com,2013-03-13 04:14:00,
2013-03-13 00:29:00,30.9,27.5,29.76,NE,45,1.7,-999.0,87,-99.99,,,0.00,Acu-Link.com,2013-03-13 04:29:00,
2013-03-13 00:44:00,30.7,27.6,29.75,WNW,292,1.1,-999.0,88,-99.99,,,0.00,Acu-Link.com,2013-03-13 04:44:00,
2013-03-13 00:59:00,30.4,27.6,29.75,ENE,67,1.7,-999.0,89,-99.99,,,0.00,Acu-Link.com,2013-03-13 04:59:00,
2013-03-13 01:14:00,30.0,27.2,29.75,NNE,22,3.7,-999.0,89,-99.99,,,0.00,Acu-Link.com,2013-03-13 05:14:00,
2013-03-13 01:30:00,29.5,27.2,29.75,NNE,22,1.1,-999.0,91,-99.99,,,0.00,Acu-Link.com,2013-03-13 05:30:00,
2013-03-13 01:45:00,29.5,27.2,29.75,WSW,247,0.0,-999.0,91,-99.99,,,0.00,Acu-Link.com,2013-03-13 05:45:00,
2013-03-13 02:00:00,29.7,27.7,29.75,West,270,0.0,-999.0,92,-99.99,,,0.00,Acu-Link.com,2013-03-13 06:00:00,
2013-03-13 02:15:00,29.8,27.5,29.75,South,180,2.2,-999.0,91,-99.99,,,0.00,Acu-Link.com,2013-03-13 06:15:00,
2013-03-13 02:30:00,29.8,27.5,29.74,ENE,67,2.2,-999.0,91,-99.99,,,0.00,Acu-Link.com,2013-03-13 06:30:00,
2013-03-13 02:45:00,30.9,27.8,29.74,ENE,67,1.7,-999.0,88,-99.99,,,0.00,Acu-Link.com,2013-03-13 06:45:00,
2013-03-13 03:00:00,31.1,27.7,29.74,ENE,67,1.7,-999.0,87,-99.99,,,0.00,Acu-Link.com,2013-03-13 07:00:00,
2013-03-13 03:15:00,32.4,28.1,29.73,NNW,337,6.3,-999.0,84,-99.99,,,0.00,Acu-Link.com,2013-03-13 07:15:00,
2013-03-13 03:30:00,32.5,28.2,29.73,West,270,2.7,-999.0,84,-99.99,,,0.00,Acu-Link.com,2013-03-13 07:30:00,
2013-03-13 03:46:00,32.9,28.0,29.74,NE,45,10.4,-999.0,82,-99.99,,,0.00,Acu-Link.com,2013-03-13 07:46:00,
2013-03-13 04:01:00,33.6,27.2,29.74,North,0,4.7,-999.0,77,-99.99,,,0.00,Acu-Link.com,2013-03-13 08:01:00,
2013-03-13 04:31:00,33.1,27.0,29.73,West,270,2.2,-999.0,78,-99.99,,,0.00,Acu-Link.com,2013-03-13 08:31:00,
2013-03-13 04:46:00,32.4,26.9,29.73,ENE,67,2.2,-999.0,80,-99.99,,,0.00,Acu-Link.com,2013-03-13 08:46:00,
2013-03-13 05:01:00,32.7,26.9,29.73,NNE,22,4.7,-999.0,79,-99.99,,,0.00,Acu-Link.com,2013-03-13 09:01:00,
2013-03-13 05:17:00,32.4,26.3,29.73,ENE,67,3.7,-999.0,78,-99.99,,,0.00,Acu-Link.com,2013-03-13 09:17:00,
2013-03-13 05:32:00,31.8,24.5,29.74,NNW,337,4.7,-999.0,74,-99.99,,,0.00,Acu-Link.com,2013-03-13 09:32:00,
2013-03-13 05:47:00,31.6,24.0,29.74,WNW,292,2.7,-999.0,73,-99.99,,,0.00,Acu-Link.com,2013-03-13 09:47:00,
2013-03-13 06:02:00,31.5,23.5,29.75,NNW,337,2.2,-999.0,72,-99.99,,,0.00,Acu-Link.com,2013-03-13 10:02:00,
2013-03-13 06:17:00,30.7,23.4,29.75,NW,315,3.2,-999.0,74,-99.99,,,0.00,Acu-Link.com,2013-03-13 10:17:00,
2013-03-13 06:32:00,30.0,23.4,29.75,ENE,67,5.8,-999.0,76,-99.99,,,0.00,Acu-Link.com,2013-03-13 10:32:00,
2013-03-13 06:47:00,29.5,23.2,29.75,NNE,22,0.0,-999.0,77,-99.99,,,0.00,Acu-Link.com,2013-03-13 10:47:00,
2013-03-13 07:02:00,28.8,23.1,29.75,ESE,112,1.7,-999.0,79,-99.99,,,0.00,Acu-Link.com,2013-03-13 11:02:00,
2013-03-13 07:17:00,28.6,22.9,29.76,ENE,67,0.0,-999.0,79,-99.99,,,0.00,Acu-Link.com,2013-03-13 11:17:00,
2013-03-13 07:33:00,28.2,22.8,29.75,WNW,292,1.1,-999.0,80,-99.99,,,0.00,Acu-Link.com,2013-03-13 11:33:00,
2013-03-13 07:48:00,27.7,22.6,29.76,WNW,292,2.2,-999.0,81,-99.99,,,0.00,Acu-Link.com,2013-03-13 11:48:00,
2013-03-13 08:03:00,27.5,22.2,29.76,West,270,0.0,-999.0,80,-99.99,,,0.00,Acu-Link.com,2013-03-13 12:03:00,
2013-03-13 08:18:00,27.7,22.6,29.76,WSW,247,0.0,-999.0,81,-99.99,,,0.00,Acu-Link.com,2013-03-13 12:18:00,
2013-03-13 08:33:00,29.7,23.1,29.76,SW,225,2.2,-999.0,76,-99.99,,,0.00,Acu-Link.com,2013-03-13 12:33:00,
2013-03-13 08:48:00,30.6,23.3,29.77,East,90,2.7,-999.0,74,-99.99,,,0.00,Acu-Link.com,2013-03-13 12:48:00,
2013-03-13 09:03:00,32.4,24.1,29.76,NE,45,2.7,-999.0,71,-99.99,,,0.00,Acu-Link.com,2013-03-13 13:03:00,
2013-03-13 09:18:00,33.8,24.4,29.77,South,180,4.2,-999.0,68,-99.99,,,0.00,Acu-Link.com,2013-03-13 13:18:00,
2013-03-13 09:33:00,32.4,24.7,29.77,South,180,2.2,-999.0,73,-99.99,,,0.00,Acu-Link.com,2013-03-13 13:33:00,
2013-03-13 09:49:00,32.7,25.3,29.77,SW,225,2.2,-999.0,74,-99.99,,,0.00,Acu-Link.com,2013-03-13 13:49:00,
2013-03-13 10:04:00,33.6,26.2,29.77,NE,45,3.7,-999.0,74,-99.99,,,0.00,Acu-Link.com,2013-03-13 14:04:00,
2013-03-13 10:19:00,34.2,25.8,29.77,South,180,6.8,-999.0,71,-99.99,,,0.00,Acu-Link.com,2013-03-13 14:19:00,
2013-03-13 10:34:00,33.1,25.4,29.77,ENE,67,2.7,-999.0,73,-99.99,,,0.00,Acu-Link.com,2013-03-13 14:34:00,
2013-03-13 10:49:00,33.8,25.4,29.77,West,270,6.8,-999.0,71,-99.99,,,0.00,Acu-Link.com,2013-03-13 14:49:00,
2013-03-13 11:04:00,34.0,25.3,29.77,WNW,292,4.2,-999.0,70,-99.99,,,0.00,Acu-Link.com,2013-03-13 15:04:00,
2013-03-13 11:19:00,33.8,26.4,29.77,SSW,202,2.7,-999.0,74,-99.99,,,0.00,Acu-Link.com,2013-03-13 15:19:00,
2013-03-13 11:34:00,34.3,27.2,29.77,North,0,5.3,-999.0,75,-99.99,,,0.00,Acu-Link.com,2013-03-13 15:34:00,
2013-03-13 11:49:00,32.9,27.1,29.78,West,270,2.7,-999.0,79,-99.99,,,0.00,Acu-Link.com,2013-03-13 15:49:00,
2013-03-13 12:05:00,32.5,29.1,29.78,SSE,157,2.7,-999.0,87,-99.99,,,0.00,Acu-Link.com,2013-03-13 16:05:00,
2013-03-13 12:20:00,34.9,29.7,29.76,East,90,8.3,-999.0,81,-99.99,,,0.00,Acu-Link.com,2013-03-13 16:20:00,
2013-03-13 12:35:00,36.0,27.2,29.75,NNE,22,7.3,-999.0,70,-99.99,,,0.00,Acu-Link.com,2013-03-13 16:35:00,
2013-03-13 12:50:00,35.8,25.6,29.76,West,270,3.7,-999.0,66,-99.99,,,0.00,Acu-Link.com,2013-03-13 16:50:00,
2013-03-13 13:05:00,38.7,26.0,29.75,SW,225,9.4,-999.0,60,-99.99,,,0.00,Acu-Link.com,2013-03-13 17:05:00,
2013-03-13 13:20:00,37.9,25.3,29.75,NW,315,5.8,-999.0,60,-99.99,,,0.00,Acu-Link.com,2013-03-13 17:20:00,
2013-03-13 13:36:00,36.9,24.7,29.74,WSW,247,11.4,-999.0,61,-99.99,,,0.00,Acu-Link.com,2013-03-13 17:36:00,
2013-03-13 14:06:00,31.1,28.2,29.75,NNE,22,5.3,-999.0,89,-99.99,,,0.00,Acu-Link.com,2013-03-13 18:06:00,
2013-03-13 14:21:00,32.9,28.6,29.74,ESE,112,6.3,-999.0,84,-99.99,,,0.00,Acu-Link.com,2013-03-13 18:21:00,
2013-03-13 14:37:00,35.2,28.7,29.73,NNE,22,8.3,-999.0,77,-99.99,,,0.01,Acu-Link.com,2013-03-13 18:37:00,
2013-03-13 14:52:00,35.1,24.2,29.73,North,0,4.2,-999.0,64,-99.99,,,0.01,Acu-Link.com,2013-03-13 18:52:00,
2013-03-13 15:07:00,36.0,22.7,29.72,West,270,6.8,-999.0,58,-99.99,,,0.02,Acu-Link.com,2013-03-13 19:07:00,
2013-03-13 15:22:00,34.7,25.6,29.74,NNE,22,7.8,-999.0,69,-99.99,,,0.02,Acu-Link.com,2013-03-13 19:22:00,
2013-03-13 15:37:00,37.4,26.0,29.73,SSW,202,5.3,-999.0,63,-99.99,,,0.02,Acu-Link.com,2013-03-13 19:37:00,
2013-03-13 15:52:00,34.5,24.0,29.73,WNW,292,15.0,-999.0,65,-99.99,,,0.02,Acu-Link.com,2013-03-13 19:52:00,
2013-03-13 16:07:00,33.8,23.3,29.74,East,90,8.3,-999.0,65,-99.99,,,0.02,Acu-Link.com,2013-03-13 20:07:00,
2013-03-13 16:22:00,37.0,24.0,29.75,SSE,157,4.7,-999.0,59,-99.99,,,0.02,Acu-Link.com,2013-03-13 20:22:00,
2013-03-13 16:37:00,35.8,20.8,29.75,NE,45,13.5,-999.0,54,-99.99,,,0.02,Acu-Link.com,2013-03-13 20:37:00,
2013-03-13 16:53:00,33.1,20.7,29.76,ENE,67,9.4,-999.0,60,-99.99,,,0.02,Acu-Link.com,2013-03-13 20:53:00,
2013-03-13 17:08:00,34.7,21.0,29.77,NNE,22,11.4,-999.0,57,-99.99,,,0.02,Acu-Link.com,2013-03-13 21:08:00,
2013-03-13 17:23:00,32.9,19.4,29.77,SSW,202,5.3,-999.0,57,-99.99,,,0.02,Acu-Link.com,2013-03-13 21:23:00,
2013-03-13 17:38:00,34.0,18.2,29.77,WNW,292,8.9,-999.0,52,-99.99,,,0.02,Acu-Link.com,2013-03-13 21:38:00,
2013-03-13 17:53:00,35.6,18.3,29.77,WSW,247,9.4,-999.0,49,-99.99,,,0.02,Acu-Link.com,2013-03-13 21:53:00,
2013-03-13 18:08:00,33.4,16.8,29.79,SE,135,7.8,-999.0,50,-99.99,,,0.02,Acu-Link.com,2013-03-13 22:08:00,
2013-03-13 18:24:00,31.5,16.8,29.79,East,90,3.2,-999.0,54,-99.99,,,0.02,Acu-Link.com,2013-03-13 22:24:00,
2013-03-13 18:39:00,30.6,17.6,29.79,SSW,202,3.2,-999.0,58,-99.99,,,0.02,Acu-Link.com,2013-03-13 22:39:00,
2013-03-13 18:54:00,29.8,17.2,29.79,SSE,157,4.2,-999.0,59,-99.99,,,0.02,Acu-Link.com,2013-03-13 22:54:00,
2013-03-13 19:09:00,29.1,18.8,29.81,West,270,8.9,-999.0,65,-99.99,,,0.02,Acu-Link.com,2013-03-13 23:09:00,
2013-03-13 19:24:00,28.0,18.5,29.82,ESE,112,4.7,-999.0,67,-99.99,,,0.02,Acu-Link.com,2013-03-13 23:24:00,
2013-03-13 19:39:00,27.7,17.8,29.82,NE,45,5.3,-999.0,66,-99.99,,,0.02,Acu-Link.com,2013-03-13 23:39:00,
2013-03-13 19:54:00,26.8,18.7,29.82,SW,225,8.9,-999.0,71,-99.99,,,0.02,Acu-Link.com,2013-03-13 23:54:00,
2013-03-13 20:09:00,26.1,18.3,29.81,SE,135,9.9,-999.0,72,-99.99,,,0.02,Acu-Link.com,2013-03-14 00:09:00,
2013-03-13 20:24:00,25.9,18.1,29.83,NE,45,3.2,-999.0,72,-99.99,,,0.02,Acu-Link.com,2013-03-14 00:24:00,
2013-03-13 20:40:00,25.5,19.0,29.85,ENE,67,7.3,-999.0,76,-99.99,,,0.02,Acu-Link.com,2013-03-14 00:40:00,
2013-03-13 20:55:00,25.0,17.9,29.85,ENE,67,4.7,-999.0,74,-99.99,,,0.02,Acu-Link.com,2013-03-14 00:55:00,
2013-03-13 21:10:00,25.0,16.6,29.85,ENE,67,3.7,-999.0,70,-99.99,,,0.02,Acu-Link.com,2013-03-14 01:10:00,
2013-03-13 21:25:00,25.2,16.5,29.84,ENE,67,5.8,-999.0,69,-99.99,,,0.02,Acu-Link.com,2013-03-14 01:25:00,
2013-03-13 21:40:00,25.0,16.0,29.85,ESE,112,3.7,-999.0,68,-99.99,,,0.02,Acu-Link.com,2013-03-14 01:40:00,
2013-03-13 21:56:00,24.6,15.2,29.85,East,90,6.8,-999.0,67,-99.99,,,0.02,Acu-Link.com,2013-03-14 01:56:00,
2013-03-13 22:11:00,24.6,15.2,29.85,NNW,337,6.3,-999.0,67,-99.99,,,0.02,Acu-Link.com,2013-03-14 02:11:00,
2013-03-13 22:27:00,24.4,15.4,29.85,ENE,67,4.2,-999.0,68,-99.99,,,0.02,Acu-Link.com,2013-03-14 02:27:00,
2013-03-13 22:42:00,23.9,15.6,29.85,ESE,112,5.3,-999.0,70,-99.99,,,0.02,Acu-Link.com,2013-03-14 02:42:00,
2013-03-13 22:57:00,23.9,15.2,29.85,NE,45,5.3,-999.0,69,-99.99,,,0.02,Acu-Link.com,2013-03-14 02:57:00,
2013-03-13 23:12:00,24.1,15.4,29.85,SSE,157,6.3,-999.0,69,-99.99,,,0.02,Acu-Link.com,2013-03-14 03:12:00,
2013-03-13 23:27:00,23.7,15.4,29.85,NE,45,11.4,-999.0,70,-99.99,,,0.02,Acu-Link.com,2013-03-14 03:27:00,
2013-03-13 23:42:00,23.7,15.4,29.85,ENE,67,13.5,-999.0,70,-99.99,,,0.02,Acu-Link.com,2013-03-14 03:42:00,
2013-03-13 23:58:00,23.4,16.0,29.85,WNW,292,6.8,-999.0,73,-99.99,,,0.02,Acu-Link.com,2013-03-14 03:58:00,